Startpagina
METAR-TAF:

METAR-TAF

Vliegvelden :

Luchthaven Prins Said Ibrahim

Moroni, Comoren

breedte: 11-32S, lengte: 043-16E, hoogte: 29 m

Actueel weer

Dit bericht is 38 minuten geleden gemaakt, om 09:00 UTC
Wind 9 kt uit het westzuidwesten
Temperatuur 30°C
Vochtigheid 66%
Druk 1015 hPa
Zicht 10 km of meer
Weinig wolken op 2000 ft

METAR: FMCH 200900Z 25009KT 9999 FEW020 30/23 Q1015 NOSIG

Tijdstip: 12:38 (09:38 UTC)

Verwachting

Dit bericht is 4 uur en het 38 minuten geleden gemaakt, om 05:00 UTC
Verwachting geldig van 20 om 06 UTC tot 21 om 12 UTC
Wind 10 kt uit het westnoordwesten
Zicht 10 km of meer
Weinig wolken op 2000 ft
Wijzigt naar
van 20 om 15 UTC tot 20 om 17 UTC
Wind 3 kt uit het oosten
Wijzigt naar
van 21 om 05 UTC tot 21 om 07 UTC
Wind 10 kt uit het westzuidwesten

TAF: FMCH 200500Z 2006/2112 30010KT 9999 FEW020 BECMG 2015/2017 10003KT BECMG 2105/2107 25010KT

Waarnemingen en weersverwachtingen van meer dan 4000 vliegvelden (METAR en TAF).

De beschikbare stations zijn de gele en rode punten op de kaart.

Ga met uw muis naar het station om de naam te zien.

Klik dan om waarnemingen en weersverwachtingen te zien.

kaart wijzigen: klik op de groene knoppen met een zwart kruis om in te zoomen, op de groene knop met een streepje om uit te zoomen of op de groene pijlen voor aangrenzende kaarten.


METAR-TAF: